aviador You're here:

SCIP Decoded Metar

EASTER ISLAND in CHILE
Report Time2018-07-23 11:00:00
UTC Time2018-07-23 11:10:24
Flight Rules vfr VFR
Wind290° at 09 kt
W.Decomp.*RWY 28: 9.0 kt HW 0.8 kt LCW
W.Rank290° ranks 17
Current wind is above 290° avg. (8.3)
Visibility9999 m
Phenomena:N/A
Clouds:Few 020 Hf
Expected CloudBase > 1,200 ft AGL from Temp-Dew spread
CeilingNone
Temp19°C (ISA +4)
Dew Point16°C (83% RH)
AAT17.8°C
QNH1022 hPa
Density Alt686 ft
Elevation226 ft
Report Wrong Elevation
Raw Report
METAR SCIP 231100Z 29009KT 9999 FEW020 19/16 Q1022 NOSIG=

Extra information for SCIP:More info

Metar Taf Metar & Taf Last 4 Metars F.Rules Stats Wind Profile Meteogram Temp Stats Airport Information Weather charts Add Link Nearby VenuesMetar ALERT Operation Metar Decoded Social comments